Balsa 86 — 3EYV6 — position and weather

sailwx.info

Track history (hours):
 
Tides and Currents Weather Stations Pressure Air Temp Water Temp Dewpoint Dewpoint Depression Visibility Wind Speed Wind Dir Waves Ship Positions

Balsa 86

Last reported at 2017-Nov-25 07:12 UTC. Time now 2017-Nov-25 09:49 UTC.
Position N 36°46' W 075°35'.

Length 106 m; draft 6.8 m.

Type: Cargo ship. MMSI: 372592000.

Date/timePositionNaut miles runAvg speedWind from/ knotsBaromVisibWave heightAir tempDewpointWater temp
2017-Nov-25 07:12N 36°46' W 075°35'311.0
2017-Nov-25 06:58N 36°48' W 075°37'4 8.7
2017-Nov-25 06:30N 36°49' W 075°42'5 9.1
2017-Nov-25 06:00N 36°49' W 075°47'5 9.4
2017-Nov-25 05:30N 36°52' W 075°52'5 9.3
2017-Nov-25 05:00N 36°55' W 075°57'5 9.4
2017-Nov-25 04:30N 36°57' W 076°02'510.7
2017-Nov-25 04:00N 36°59' W 076°08'610.7
2017-Nov-25 03:28N 37°00' W 076°15'510.0
2017-Nov-25 02:59N 36°58' W 076°20'510.1
2017-Nov-25 02:30N 36°53' W 076°20'3 5.6
2017-Nov-25 02:00N 36°51' W 076°18'3 5.1
2017-Nov-25 01:30N 36°48' W 076°17'0 0.1
2017-Nov-25 00:59N 36°48' W 076°17'0 0.0
2017-Nov-25 00:30N 36°48' W 076°17'0 0.0
2017-Nov-24 23:59N 36°48' W 076°17'0 0.0
2017-Nov-24 23:29N 36°48' W 076°17'0 0.0
2017-Nov-24 23:00N 36°48' W 076°17'0 0.0
2017-Nov-24 22:29N 36°48' W 076°17'0 0.0
2017-Nov-24 21:59N 36°48' W 076°17'0 0.0
2017-Nov-24 21:29N 36°48' W 076°17'0 0.0
2017-Nov-24 20:59N 36°48' W 076°17'0 0.0
2017-Nov-24 20:26N 36°48' W 076°17'0 0.0
2017-Nov-24 19:59N 36°48' W 076°17'0 0.0
2017-Nov-24 19:29N 36°48' W 076°17'0 0.0
2017-Nov-24 18:56N 36°48' W 076°17'0 0.0
2017-Nov-24 18:29N 36°48' W 076°17'0 0.0
2017-Nov-24 17:59N 36°48' W 076°17'0 0.0
2017-Nov-24 17:29N 36°48' W 076°17'0 0.0
2017-Nov-24 17:00N 36°48' W 076°17'0 0.0
2017-Nov-24 16:30N 36°48' W 076°17'0 0.0
2017-Nov-24 15:59N 36°48' W 076°17'0 0.0
2017-Nov-24 15:29N 36°48' W 076°17'0 0.0
2017-Nov-24 15:00N 36°48' W 076°17'0 0.0
2017-Nov-24 14:29N 36°48' W 076°17'0 0.0
2017-Nov-24 13:59N 36°48' W 076°17'0 0.0
2017-Nov-24 13:30N 36°48' W 076°17'0 0.0
2017-Nov-24 12:59N 36°48' W 076°17'0 0.0
2017-Nov-24 12:29N 36°48' W 076°17'0 0.1
2017-Nov-24 12:00N 36°48' W 076°17'2 4.7
2017-Nov-24 11:30N 36°50' W 076°18'3 5.8
2017-Nov-24 11:00N 36°53' W 076°20'4 8.1
2017-Nov-24 10:30N 36°57' W 076°20'2 3.7
2017-Nov-24 10:00N 36°56' W 076°23'0 0.0
2017-Nov-24 09:30N 36°56' W 076°23'0 0.0
2017-Nov-24 09:00N 36°56' W 076°23'0 0.0
2017-Nov-24 08:30N 36°56' W 076°23'0 0.0
2017-Nov-24 08:00N 36°56' W 076°23'0 0.1
2017-Nov-24 07:30N 36°56' W 076°23'0 0.0
2017-Nov-24 03:15N 36°56' W 076°23'0 0.0
2017-Nov-24 02:57N 36°56' W 076°23'0 0.1
2017-Nov-24 02:30N 36°56' W 076°23'0 0.1
2017-Nov-24 02:00N 36°56' W 076°23'0 0.0
2017-Nov-24 01:30N 36°56' W 076°23'0 0.1
2017-Nov-24 01:00N 36°56' W 076°23'0 0.0
2017-Nov-24 00:30N 36°56' W 076°23'0 0.0
2017-Nov-24 00:00N 36°56' W 076°23'0 0.0
2017-Nov-23 23:30N 36°56' W 076°23'0 0.0
2017-Nov-23 23:00N 36°56' W 076°23'0 0.0
2017-Nov-23 22:30N 36°56' W 076°23'0 0.0
2017-Nov-23 22:00N 36°56' W 076°23'0 0.0
2017-Nov-23 21:30N 36°56' W 076°23'0 0.0
2017-Nov-23 20:54N 36°56' W 076°23'0 0.0
2017-Nov-23 20:30N 36°56' W 076°23'0 0.0
2017-Nov-23 20:00N 36°56' W 076°23'0 0.0
2017-Nov-23 19:30N 36°56' W 076°23'0 0.1
2017-Nov-23 19:00N 36°56' W 076°23'0 0.1
2017-Nov-23 18:27N 36°56' W 076°23'0 0.1
2017-Nov-23 18:00N 36°56' W 076°23'0 0.0
2017-Nov-23 17:30N 36°56' W 076°23'0 0.0
2017-Nov-23 16:57N 36°56' W 076°23'0 0.0
2017-Nov-23 16:09N 36°56' W 076°23'0 0.0
2017-Nov-23 14:33N 36°56' W 076°23'0 0.1
2017-Nov-23 14:30N 36°56' W 076°23'0 0.0
2017-Nov-23 14:00N 36°56' W 076°23'0 0.0
2017-Nov-23 13:30N 36°56' W 076°23'0 0.0
2017-Nov-23 12:54N 36°56' W 076°23'0 0.0
2017-Nov-23 12:27N 36°56' W 076°23'0 0.0
2017-Nov-23 11:54N 36°56' W 076°23'0 0.0
2017-Nov-23 08:12N 36°56' W 076°23'0 0.3
2017-Nov-23 08:00N 36°56' W 076°23'5 9.4
2017-Nov-23 07:30N 36°60' W 076°18'911.6
2017-Nov-23 06:44N 36°59' W 076°07'312.2
2017-Nov-23 06:30N 36°58' W 076°04'610.9
2017-Nov-23 06:00N 36°56' W 075°58'4 8.6
2017-Nov-23 05:29N 36°54' W 075°53'6 9.3
2017-Nov-23 04:50N 36°50' W 075°47'  
2017-Nov-19 12:38N 31°08' W 081°30'0 0.0
2017-Nov-19 12:26N 31°08' W 081°30'0 0.0
2017-Nov-19 11:56N 31°08' W 081°30'0 0.0
2017-Nov-19 11:26N 31°08' W 081°30'0 0.0
2017-Nov-19 10:56N 31°08' W 081°30'0 0.0
2017-Nov-19 10:26N 31°08' W 081°30'0 0.0
2017-Nov-19 08:08N 31°08' W 081°30'0 0.0
2017-Nov-19 07:56N 31°08' W 081°30'0 0.0
2017-Nov-19 06:50N 31°08' W 081°30'0 0.0
2017-Nov-19 06:02N 31°08' W 081°30'0 0.1
2017-Nov-19 05:56N 31°08' W 081°30'0 0.0
2017-Nov-19 04:50N 31°08' W 081°30'0 0.0
2017-Nov-19 04:20N 31°08' W 081°30'0 0.0
2017-Nov-19 03:50N 31°08' W 081°30'0 0.0
2017-Nov-19 03:26N 31°08' W 081°30'0 0.0
2017-Nov-19 02:56N 31°08' W 081°30'0 0.0
2017-Nov-19 02:26N 31°08' W 081°30'0 0.0
2017-Nov-19 01:56N 31°08' W 081°30'0 0.0
2017-Nov-19 01:26N 31°08' W 081°30'0 0.0
2017-Nov-19 00:56N 31°08' W 081°30'0 0.0
2017-Nov-19 00:26N 31°08' W 081°30'0 0.0
2017-Nov-18 23:59N 31°08' W 081°30'0 0.0
2017-Nov-18 23:26N 31°08' W 081°30'0 0.0
2017-Nov-18 22:59N 31°08' W 081°30'0 0.0
2017-Nov-18 22:29N 31°08' W 081°30'0 0.0
2017-Nov-18 21:53N 31°08' W 081°30'0 0.0
2017-Nov-18 21:26N 31°08' W 081°30'0 0.0
2017-Nov-18 20:56N 31°08' W 081°30'0 0.0
2017-Nov-18 20:08N 31°08' W 081°30'0 0.0
2017-Nov-18 19:59N 31°08' W 081°30'0 0.0
2017-Nov-18 19:26N 31°08' W 081°30'0 0.0
2017-Nov-18 18:56N 31°08' W 081°30'0 0.0
2017-Nov-18 18:26N 31°08' W 081°30'0 0.0
2017-Nov-18 17:56N 31°08' W 081°30'0 0.0
2017-Nov-18 17:26N 31°08' W 081°30'0 0.0
2017-Nov-18 16:59N 31°08' W 081°30'0 0.0
2017-Nov-18 16:29N 31°08' W 081°30'0 0.0
2017-Nov-18 15:08N 31°08' W 081°30'0 0.0
2017-Nov-18 14:56N 31°08' W 081°30'0 0.0
2017-Nov-18 14:29N 31°08' W 081°30'0 0.0
2017-Nov-18 13:59N 31°08' W 081°30'0 0.0
2017-Nov-18 13:29N 31°08' W 081°30'0 0.0
2017-Nov-18 12:59N 31°08' W 081°30'0 0.0
2017-Nov-18 12:29N 31°08' W 081°30'0 0.0
2017-Nov-18 11:59N 31°08' W 081°30'0 0.0
2017-Nov-18 11:29N 31°08' W 081°30'0 0.0
2017-Nov-18 10:59N 31°08' W 081°30'0 0.0
2017-Nov-18 10:26N 31°08' W 081°30'0 0.0
2017-Nov-18 09:59N 31°08' W 081°30'0 0.0
2017-Nov-18 09:20N 31°08' W 081°30'0 0.0
2017-Nov-18 08:59N 31°08' W 081°30'0 0.0
2017-Nov-18 08:26N 31°08' W 081°30'0 0.0
2017-Nov-18 07:56N 31°08' W 081°30'0 0.0
2017-Nov-18 07:26N 31°08' W 081°30'0 0.0
2017-Nov-18 06:56N 31°08' W 081°30'0 0.0
2017-Nov-18 06:26N 31°08' W 081°30'0 0.0
2017-Nov-18 05:56N 31°08' W 081°30'0 0.0
2017-Nov-18 05:26N 31°08' W 081°30'0 0.0
2017-Nov-18 04:56N 31°08' W 081°30'0 0.0
2017-Nov-18 04:26N 31°08' W 081°30'0 0.0
2017-Nov-18 03:56N 31°08' W 081°30'0 0.0
2017-Nov-18 03:26N 31°08' W 081°30'0 0.0
2017-Nov-18 02:56N 31°08' W 081°30'0 0.0
2017-Nov-18 02:26N 31°08' W 081°30'0 0.0
2017-Nov-18 01:56N 31°08' W 081°30'0 0.0
2017-Nov-18 01:26N 31°08' W 081°30'0 0.0
2017-Nov-18 00:56N 31°08' W 081°30'0 0.0
2017-Nov-18 00:26N 31°08' W 081°30'0 0.0
2017-Nov-17 23:56N 31°08' W 081°30'0 0.0
2017-Nov-17 23:26N 31°08' W 081°30'0 0.0
2017-Nov-17 22:56N 31°08' W 081°30'0 0.0
2017-Nov-17 22:26N 31°08' W 081°30'0 0.0
2017-Nov-17 21:50N 31°08' W 081°30'0 0.0
2017-Nov-17 21:26N 31°08' W 081°30'0 0.0
2017-Nov-17 20:59N 31°08' W 081°30'0 0.0
2017-Nov-17 19:08N 31°08' W 081°30'0 0.0
2017-Nov-17 18:59N 31°08' W 081°30'14 0.5
2017-Nov-16 12:55N 31°01' W 081°15'0 0.0
2017-Nov-16 12:25N 31°01' W 081°15'  
Track history (hours):
 
Tides and Currents Weather Stations Pressure Air Temp Water Temp Dewpoint Dewpoint Depression Visibility Wind Speed Wind Dir Waves Ship Positions

Balsa 86

Last reported at 2017-Nov-25 07:12 UTC. Time now 2017-Nov-25 09:49 UTC.
Position N 36°46' W 075°35'.

Length 106 m; draft 6.8 m.

Type: Cargo ship. MMSI: 372592000.

Date/timePositionNaut miles runAvg speedWind from/ knotsBaromVisibWave heightAir tempDewpointWater temp
2017-Nov-25 07:12N 36°46' W 075°35'311.0
2017-Nov-25 06:58N 36°48' W 075°37'4 8.7
2017-Nov-25 06:30N 36°49' W 075°42'5 9.1
2017-Nov-25 06:00N 36°49' W 075°47'5 9.4
2017-Nov-25 05:30N 36°52' W 075°52'5 9.3
2017-Nov-25 05:00N 36°55' W 075°57'5 9.4
2017-Nov-25 04:30N 36°57' W 076°02'510.7
2017-Nov-25 04:00N 36°59' W 076°08'610.7
2017-Nov-25 03:28N 37°00' W 076°15'510.0
2017-Nov-25 02:59N 36°58' W 076°20'510.1
2017-Nov-25 02:30N 36°53' W 076°20'3 5.6
2017-Nov-25 02:00N 36°51' W 076°18'3 5.1
2017-Nov-25 01:30N 36°48' W 076°17'0 0.1
2017-Nov-25 00:59N 36°48' W 076°17'0 0.0
2017-Nov-25 00:30N 36°48' W 076°17'0 0.0
2017-Nov-24 23:59N 36°48' W 076°17'0 0.0
2017-Nov-24 23:29N 36°48' W 076°17'0 0.0
2017-Nov-24 23:00N 36°48' W 076°17'0 0.0
2017-Nov-24 22:29N 36°48' W 076°17'0 0.0
2017-Nov-24 21:59N 36°48' W 076°17'0 0.0
2017-Nov-24 21:29N 36°48' W 076°17'0 0.0
2017-Nov-24 20:59N 36°48' W 076°17'0 0.0
2017-Nov-24 20:26N 36°48' W 076°17'0 0.0
2017-Nov-24 19:59N 36°48' W 076°17'0 0.0
2017-Nov-24 19:29N 36°48' W 076°17'0 0.0
2017-Nov-24 18:56N 36°48' W 076°17'0 0.0
2017-Nov-24 18:29N 36°48' W 076°17'0 0.0
2017-Nov-24 17:59N 36°48' W 076°17'0 0.0
2017-Nov-24 17:29N 36°48' W 076°17'0 0.0
2017-Nov-24 17:00N 36°48' W 076°17'0 0.0
2017-Nov-24 16:30N 36°48' W 076°17'0 0.0
2017-Nov-24 15:59N 36°48' W 076°17'0 0.0
2017-Nov-24 15:29N 36°48' W 076°17'0 0.0
2017-Nov-24 15:00N 36°48' W 076°17'0 0.0
2017-Nov-24 14:29N 36°48' W 076°17'0 0.0
2017-Nov-24 13:59N 36°48' W 076°17'0 0.0
2017-Nov-24 13:30N 36°48' W 076°17'0 0.0
2017-Nov-24 12:59N 36°48' W 076°17'0 0.0
2017-Nov-24 12:29N 36°48' W 076°17'0 0.1
2017-Nov-24 12:00N 36°48' W 076°17'2 4.7
2017-Nov-24 11:30N 36°50' W 076°18'3 5.8
2017-Nov-24 11:00N 36°53' W 076°20'4 8.1
2017-Nov-24 10:30N 36°57' W 076°20'2 3.7
2017-Nov-24 10:00N 36°56' W 076°23'0 0.0
2017-Nov-24 09:30N 36°56' W 076°23'0 0.0
2017-Nov-24 09:00N 36°56' W 076°23'0 0.0
2017-Nov-24 08:30N 36°56' W 076°23'0 0.0
2017-Nov-24 08:00N 36°56' W 076°23'0 0.1
2017-Nov-24 07:30N 36°56' W 076°23'0 0.0
2017-Nov-24 03:15N 36°56' W 076°23'0 0.0
2017-Nov-24 02:57N 36°56' W 076°23'0 0.1
2017-Nov-24 02:30N 36°56' W 076°23'0 0.1
2017-Nov-24 02:00N 36°56' W 076°23'0 0.0
2017-Nov-24 01:30N 36°56' W 076°23'0 0.1
2017-Nov-24 01:00N 36°56' W 076°23'0 0.0
2017-Nov-24 00:30N 36°56' W 076°23'0 0.0
2017-Nov-24 00:00N 36°56' W 076°23'0 0.0
2017-Nov-23 23:30N 36°56' W 076°23'0 0.0
2017-Nov-23 23:00N 36°56' W 076°23'0 0.0
2017-Nov-23 22:30N 36°56' W 076°23'0 0.0
2017-Nov-23 22:00N 36°56' W 076°23'0 0.0
2017-Nov-23 21:30N 36°56' W 076°23'0 0.0
2017-Nov-23 20:54N 36°56' W 076°23'0 0.0
2017-Nov-23 20:30N 36°56' W 076°23'0 0.0
2017-Nov-23 20:00N 36°56' W 076°23'0 0.0
2017-Nov-23 19:30N 36°56' W 076°23'0 0.1
2017-Nov-23 19:00N 36°56' W 076°23'0 0.1
2017-Nov-23 18:27N 36°56' W 076°23'0 0.1
2017-Nov-23 18:00N 36°56' W 076°23'0 0.0
2017-Nov-23 17:30N 36°56' W 076°23'0 0.0
2017-Nov-23 16:57N 36°56' W 076°23'0 0.0
2017-Nov-23 16:09N 36°56' W 076°23'0 0.0
2017-Nov-23 14:33N 36°56' W 076°23'0 0.1
2017-Nov-23 14:30N 36°56' W 076°23'0 0.0
2017-Nov-23 14:00N 36°56' W 076°23'0 0.0
2017-Nov-23 13:30N 36°56' W 076°23'0 0.0
2017-Nov-23 12:54N 36°56' W 076°23'0 0.0
2017-Nov-23 12:27N 36°56' W 076°23'0 0.0
2017-Nov-23 11:54N 36°56' W 076°23'0 0.0
2017-Nov-23 08:12N 36°56' W 076°23'0 0.3
2017-Nov-23 08:00N 36°56' W 076°23'5 9.4
2017-Nov-23 07:30N 36°60' W 076°18'911.6
2017-Nov-23 06:44N 36°59' W 076°07'312.2
2017-Nov-23 06:30N 36°58' W 076°04'610.9
2017-Nov-23 06:00N 36°56' W 075°58'4 8.6
2017-Nov-23 05:29N 36°54' W 075°53'6 9.3
2017-Nov-23 04:50N 36°50' W 075°47'  
2017-Nov-19 12:38N 31°08' W 081°30'0 0.0
2017-Nov-19 12:26N 31°08' W 081°30'0 0.0
2017-Nov-19 11:56N 31°08' W 081°30'0 0.0
2017-Nov-19 11:26N 31°08' W 081°30'0 0.0
2017-Nov-19 10:56N 31°08' W 081°30'0 0.0
2017-Nov-19 10:26N 31°08' W 081°30'0 0.0
2017-Nov-19 08:08N 31°08' W 081°30'0 0.0
2017-Nov-19 07:56N 31°08' W 081°30'0 0.0
2017-Nov-19 06:50N 31°08' W 081°30'0 0.0
2017-Nov-19 06:02N 31°08' W 081°30'0 0.1
2017-Nov-19 05:56N 31°08' W 081°30'0 0.0
2017-Nov-19 04:50N 31°08' W 081°30'0 0.0
2017-Nov-19 04:20N 31°08' W 081°30'0 0.0
2017-Nov-19 03:50N 31°08' W 081°30'0 0.0
2017-Nov-19 03:26N 31°08' W 081°30'0 0.0
2017-Nov-19 02:56N 31°08' W 081°30'0 0.0
2017-Nov-19 02:26N 31°08' W 081°30'0 0.0
2017-Nov-19 01:56N 31°08' W 081°30'0 0.0
2017-Nov-19 01:26N 31°08' W 081°30'0 0.0
2017-Nov-19 00:56N 31°08' W 081°30'0 0.0
2017-Nov-19 00:26N 31°08' W 081°30'0 0.0
2017-Nov-18 23:59N 31°08' W 081°30'0 0.0
2017-Nov-18 23:26N 31°08' W 081°30'0 0.0
2017-Nov-18 22:59N 31°08' W 081°30'0 0.0
2017-Nov-18 22:29N 31°08' W 081°30'0 0.0
2017-Nov-18 21:53N 31°08' W 081°30'0 0.0
2017-Nov-18 21:26N 31°08' W 081°30'0 0.0
2017-Nov-18 20:56N 31°08' W 081°30'0 0.0
2017-Nov-18 20:08N 31°08' W 081°30'0 0.0
2017-Nov-18 19:59N 31°08' W 081°30'0 0.0
2017-Nov-18 19:26N 31°08' W 081°30'0 0.0
2017-Nov-18 18:56N 31°08' W 081°30'0 0.0
2017-Nov-18 18:26N 31°08' W 081°30'0 0.0
2017-Nov-18 17:56N 31°08' W 081°30'0 0.0
2017-Nov-18 17:26N 31°08' W 081°30'0 0.0
2017-Nov-18 16:59N 31°08' W 081°30'0 0.0
2017-Nov-18 16:29N 31°08' W 081°30'0 0.0
2017-Nov-18 15:08N 31°08' W 081°30'0 0.0
2017-Nov-18 14:56N 31°08' W 081°30'0 0.0
2017-Nov-18 14:29N 31°08' W 081°30'0 0.0
2017-Nov-18 13:59N 31°08' W 081°30'0 0.0
2017-Nov-18 13:29N 31°08' W 081°30'0 0.0
2017-Nov-18 12:59N 31°08' W 081°30'0 0.0
2017-Nov-18 12:29N 31°08' W 081°30'0 0.0
2017-Nov-18 11:59N 31°08' W 081°30'0 0.0
2017-Nov-18 11:29N 31°08' W 081°30'0 0.0
2017-Nov-18 10:59N 31°08' W 081°30'0 0.0
2017-Nov-18 10:26N 31°08' W 081°30'0 0.0
2017-Nov-18 09:59N 31°08' W 081°30'0 0.0
2017-Nov-18 09:20N 31°08' W 081°30'0 0.0
2017-Nov-18 08:59N 31°08' W 081°30'0 0.0
2017-Nov-18 08:26N 31°08' W 081°30'0 0.0
2017-Nov-18 07:56N 31°08' W 081°30'0 0.0
2017-Nov-18 07:26N 31°08' W 081°30'0 0.0
2017-Nov-18 06:56N 31°08' W 081°30'0 0.0
2017-Nov-18 06:26N 31°08' W 081°30'0 0.0
2017-Nov-18 05:56N 31°08' W 081°30'0 0.0
2017-Nov-18 05:26N 31°08' W 081°30'0 0.0
2017-Nov-18 04:56N 31°08' W 081°30'0 0.0
2017-Nov-18 04:26N 31°08' W 081°30'0 0.0
2017-Nov-18 03:56N 31°08' W 081°30'0 0.0
2017-Nov-18 03:26N 31°08' W 081°30'0 0.0
2017-Nov-18 02:56N 31°08' W 081°30'0 0.0
2017-Nov-18 02:26N 31°08' W 081°30'0 0.0
2017-Nov-18 01:56N 31°08' W 081°30'0 0.0
2017-Nov-18 01:26N 31°08' W 081°30'0 0.0
2017-Nov-18 00:56N 31°08' W 081°30'0 0.0
2017-Nov-18 00:26N 31°08' W 081°30'0 0.0
2017-Nov-17 23:56N 31°08' W 081°30'0 0.0
2017-Nov-17 23:26N 31°08' W 081°30'0 0.0
2017-Nov-17 22:56N 31°08' W 081°30'0 0.0
2017-Nov-17 22:26N 31°08' W 081°30'0 0.0
2017-Nov-17 21:50N 31°08' W 081°30'0 0.0
2017-Nov-17 21:26N 31°08' W 081°30'0 0.0
2017-Nov-17 20:59N 31°08' W 081°30'0 0.0
2017-Nov-17 19:08N 31°08' W 081°30'0 0.0
2017-Nov-17 18:59N 31°08' W 081°30'14 0.5
2017-Nov-16 12:55N 31°01' W 081°15'0 0.0
2017-Nov-16 12:25N 31°01' W 081°15'  

Dump ship's entire track history